sensor_id;sensor_type;location;lat;lon;timestamp;pressure;altitude;pressure_sealevel;temperature;humidity
72585;BME280;60618;40.084;32.908;2023-06-24T00:00:06;89864.31;;;16.57;52.95
72585;BME280;60618;40.084;32.908;2023-06-24T00:02:34;89865.47;;;16.72;52.44
72585;BME280;60618;40.084;32.908;2023-06-24T00:05:03;89870.22;;;16.91;52.12
72585;BME280;60618;40.084;32.908;2023-06-24T00:07:30;89859.34;;;17.02;52.07
72585;BME280;60618;40.084;32.908;2023-06-24T00:09:57;89859.25;;;17.13;52.03
72585;BME280;60618;40.084;32.908;2023-06-24T00:12:24;89860.19;;;17.16;51.84
72585;BME280;60618;40.084;32.908;2023-06-24T00:14:51;89856.34;;;17.11;52.33
72585;BME280;60618;40.084;32.908;2023-06-24T00:17:18;89852.22;;;17.05;52.60
72585;BME280;60618;40.084;32.908;2023-06-24T00:19:45;89857.84;;;17.07;52.50
72585;BME280;60618;40.084;32.908;2023-06-24T00:22:12;89850.97;;;17.11;52.29
72585;BME280;60618;40.084;32.908;2023-06-24T00:24:41;89845.91;;;17.02;51.58
72585;BME280;60618;40.084;32.908;2023-06-24T00:27:08;89843.75;;;16.59;52.67
72585;BME280;60618;40.084;32.908;2023-06-24T00:29:35;89839.03;;;16.35;52.98
72585;BME280;60618;40.084;32.908;2023-06-24T00:32:02;89838.56;;;16.37;52.57
72585;BME280;60618;40.084;32.908;2023-06-24T00:34:29;89833.66;;;16.35;53.20
72585;BME280;60618;40.084;32.908;2023-06-24T00:36:56;89827.41;;;16.22;53.07
72585;BME280;60618;40.084;32.908;2023-06-24T00:39:23;89822.56;;;16.14;53.28
72585;BME280;60618;40.084;32.908;2023-06-24T00:41:50;89819.91;;;16.09;53.92
72585;BME280;60618;40.084;32.908;2023-06-24T00:44:17;89822.13;;;16.05;53.78
72585;BME280;60618;40.084;32.908;2023-06-24T00:46:44;89826.53;;;16.02;53.79
72585;BME280;60618;40.084;32.908;2023-06-24T00:49:11;89814.34;;;16.01;54.48
72585;BME280;60618;40.084;32.908;2023-06-24T00:51:38;89814.34;;;15.96;53.97
72585;BME280;60618;40.084;32.908;2023-06-24T00:54:05;89819.38;;;15.69;54.53
72585;BME280;60618;40.084;32.908;2023-06-24T00:56:36;89808.66;;;15.64;54.58
72585;BME280;60618;40.084;32.908;2023-06-24T00:59:04;89817.69;;;15.60;55.23
72585;BME280;60618;40.084;32.908;2023-06-24T01:01:34;89811.34;;;15.64;54.59
72585;BME280;60618;40.084;32.908;2023-06-24T01:04:02;89816.47;;;15.56;55.07
72585;BME280;60618;40.084;32.908;2023-06-24T01:06:30;89813.06;;;15.61;55.54
72585;BME280;60618;40.084;32.908;2023-06-24T01:08:58;89801.09;;;15.56;55.58
72585;BME280;60618;40.084;32.908;2023-06-24T01:11:29;89806.69;;;15.58;55.55
72585;BME280;60618;40.084;32.908;2023-06-24T01:13:57;89807.97;;;15.46;55.99
72585;BME280;60618;40.084;32.908;2023-06-24T01:33:44;89809.22;;;15.34;56.31
72585;BME280;60618;40.084;32.908;2023-06-24T01:36:11;89813.34;;;15.35;56.29
72585;BME280;60618;40.084;32.908;2023-06-24T01:38:46;89819.22;;;15.39;56.46
72585;BME280;60618;40.084;32.908;2023-06-24T01:41:16;89817.75;;;15.38;56.62
72585;BME280;60618;40.084;32.908;2023-06-24T01:43:45;89819.25;;;15.22;57.12
72585;BME280;60618;40.084;32.908;2023-06-24T01:46:14;89821.94;;;15.28;58.35
72585;BME280;60618;40.084;32.908;2023-06-24T01:48:44;89825.59;;;15.25;58.78
72585;BME280;60618;40.084;32.908;2023-06-24T01:51:18;89823.63;;;15.31;58.24
72585;BME280;60618;40.084;32.908;2023-06-24T01:53:54;89830.38;;;15.54;57.08
72585;BME280;60618;40.084;32.908;2023-06-24T01:56:25;89837.22;;;15.67;56.41
72585;BME280;60618;40.084;32.908;2023-06-24T01:58:56;89842.56;;;15.67;57.03
72585;BME280;60618;40.084;32.908;2023-06-24T02:01:24;89837.47;;;15.57;57.42
72585;BME280;60618;40.084;32.908;2023-06-24T02:03:52;89839.16;;;15.60;57.43
72585;BME280;60618;40.084;32.908;2023-06-24T02:06:22;89837.47;;;15.57;58.00
72585;BME280;60618;40.084;32.908;2023-06-24T02:08:51;89835.50;;;15.64;57.62
72585;BME280;60618;40.084;32.908;2023-06-24T02:11:21;89836.16;;;15.81;57.39
72585;BME280;60618;40.084;32.908;2023-06-24T02:13:51;89837.31;;;15.97;57.40
72585;BME280;60618;40.084;32.908;2023-06-24T02:16:20;89834.59;;;16.02;56.68
72585;BME280;60618;40.084;32.908;2023-06-24T02:18:48;89842.47;;;15.89;57.06
72585;BME280;60618;40.084;32.908;2023-06-24T02:21:17;89847.84;;;15.89;56.88
72585;BME280;60618;40.084;32.908;2023-06-24T02:23:44;89846.38;;;15.94;56.92
72585;BME280;60618;40.084;32.908;2023-06-24T02:26:12;89847.81;;;16.00;56.34
72585;BME280;60618;40.084;32.908;2023-06-24T02:28:40;89849.06;;;15.88;57.43
72585;BME280;60618;40.084;32.908;2023-06-24T02:31:09;89846.44;;;15.71;58.29
72585;BME280;60618;40.084;32.908;2023-06-24T02:33:37;89851.59;;;15.58;59.18
72585;BME280;60618;40.084;32.908;2023-06-24T02:36:04;89850.88;;;15.57;59.13
72585;BME280;60618;40.084;32.908;2023-06-24T02:38:31;89854.31;;;15.64;58.66
72585;BME280;60618;40.084;32.908;2023-06-24T02:40:58;89852.59;;;15.66;60.00
72585;BME280;60618;40.084;32.908;2023-06-24T02:43:25;89856.50;;;15.65;60.45
72585;BME280;60618;40.084;32.908;2023-06-24T02:45:53;89866.25;;;15.63;59.98
72585;BME280;60618;40.084;32.908;2023-06-24T02:48:21;89850.41;;;15.65;59.73
72585;BME280;60618;40.084;32.908;2023-06-24T02:50:48;89863.63;;;15.40;61.63
72585;BME280;60618;40.084;32.908;2023-06-24T02:53:16;89865.34;;;15.32;61.93
72585;BME280;60618;40.084;32.908;2023-06-24T02:55:44;89876.56;;;15.30;62.56
72585;BME280;60618;40.084;32.908;2023-06-24T02:58:13;89875.84;;;15.30;62.48
72585;BME280;60618;40.084;32.908;2023-06-24T03:00:40;89873.41;;;15.10;63.86
72585;BME280;60618;40.084;32.908;2023-06-24T05:13:43;89903.63;;;22.22;45.45
72585;BME280;60618;40.084;32.908;2023-06-24T05:16:10;89903.44;;;22.28;44.94
72585;BME280;60618;40.084;32.908;2023-06-24T05:18:37;89902.22;;;22.36;44.57
72585;BME280;60618;40.084;32.908;2023-06-24T05:21:04;89894.41;;;22.25;42.04
72585;BME280;60618;40.084;32.908;2023-06-24T05:23:31;89899.28;;;22.27;42.51
72585;BME280;60618;40.084;32.908;2023-06-24T05:25:58;89895.13;;;22.26;42.39
72585;BME280;60618;40.084;32.908;2023-06-24T05:28:25;89905.38;;;22.12;40.85
72585;BME280;60618;40.084;32.908;2023-06-24T05:30:52;89898.97;;;22.30;41.67
72585;BME280;60618;40.084;32.908;2023-06-24T05:33:19;89897.47;;;22.58;41.11
72585;BME280;60618;40.084;32.908;2023-06-24T05:35:46;89894.56;;;22.56;41.96
72585;BME280;60618;40.084;32.908;2023-06-24T05:38:13;89898.03;;;22.28;40.18
72585;BME280;60618;40.084;32.908;2023-06-24T05:40:40;89897.00;;;21.81;40.97
72585;BME280;60618;40.084;32.908;2023-06-24T05:43:07;89885.31;;;21.87;42.32
72585;BME280;60618;40.084;32.908;2023-06-24T05:45:34;89887.53;;;22.24;41.57
72585;BME280;60618;40.084;32.908;2023-06-24T05:48:02;89886.16;;;22.38;39.13
72585;BME280;60618;40.084;32.908;2023-06-24T05:50:39;89888.97;;;22.25;40.08
72585;BME280;60618;40.084;32.908;2023-06-24T05:53:06;89881.56;;;22.26;40.23
72585;BME280;60618;40.084;32.908;2023-06-24T05:55:32;89883.22;;;22.29;40.45
72585;BME280;60618;40.084;32.908;2023-06-24T05:58:00;89881.59;;;22.33;41.25
72585;BME280;60618;40.084;32.908;2023-06-24T06:00:27;89887.09;;;21.84;42.37
72585;BME280;60618;40.084;32.908;2023-06-24T06:02:54;89876.28;;;21.63;42.08
72585;BME280;60618;40.084;32.908;2023-06-24T06:05:21;89891.59;;;21.81;40.94
72585;BME280;60618;40.084;32.908;2023-06-24T06:07:48;89888.69;;;22.08;41.99
72585;BME280;60618;40.084;32.908;2023-06-24T06:10:15;89884.00;;;21.80;43.82
72585;BME280;60618;40.084;32.908;2023-06-24T06:12:41;89880.59;;;22.16;42.90
72585;BME280;60618;40.084;32.908;2023-06-24T06:15:09;89879.50;;;22.11;41.18
72585;BME280;60618;40.084;32.908;2023-06-24T06:17:36;89882.09;;;21.96;42.28
72585;BME280;60618;40.084;32.908;2023-06-24T06:20:03;89880.25;;;22.19;40.97
72585;BME280;60618;40.084;32.908;2023-06-24T06:22:30;89883.88;;;22.58;40.05
72585;BME280;60618;40.084;32.908;2023-06-24T06:24:57;89878.44;;;23.02;41.85
72585;BME280;60618;40.084;32.908;2023-06-24T06:27:24;89877.00;;;23.31;40.20
72585;BME280;60618;40.084;32.908;2023-06-24T06:29:51;89883.72;;;22.71;40.91
72585;BME280;60618;40.084;32.908;2023-06-24T06:32:18;89875.16;;;23.03;42.00
72585;BME280;60618;40.084;32.908;2023-06-24T06:34:45;89872.66;;;23.20;38.44
72585;BME280;60618;40.084;32.908;2023-06-24T06:37:12;89874.84;;;23.22;41.57
72585;BME280;60618;40.084;32.908;2023-06-24T06:39:39;89871.75;;;23.33;40.36
72585;BME280;60618;40.084;32.908;2023-06-24T06:42:06;89864.28;;;22.96;42.10
72585;BME280;60618;40.084;32.908;2023-06-24T06:44:33;89869.75;;;23.26;40.92
72585;BME280;60618;40.084;32.908;2023-06-24T06:47:00;89874.41;;;22.87;41.39
72585;BME280;60618;40.084;32.908;2023-06-24T06:49:27;89869.22;;;23.20;41.28
72585;BME280;60618;40.084;32.908;2023-06-24T06:51:54;89880.94;;;22.92;40.27
72585;BME280;60618;40.084;32.908;2023-06-24T06:54:21;89867.25;;;22.69;40.27
72585;BME280;60618;40.084;32.908;2023-06-24T06:56:48;89876.41;;;22.94;39.83
72585;BME280;60618;40.084;32.908;2023-06-24T06:59:15;89868.81;;;23.01;38.89
72585;BME280;60618;40.084;32.908;2023-06-24T07:01:42;89866.09;;;22.93;38.74
72585;BME280;60618;40.084;32.908;2023-06-24T07:04:09;89867.06;;;22.67;38.39
72585;BME280;60618;40.084;32.908;2023-06-24T07:06:36;89860.19;;;22.66;39.49
72585;BME280;60618;40.084;32.908;2023-06-24T07:09:02;89858.88;;;23.18;39.71
72585;BME280;60618;40.084;32.908;2023-06-24T07:11:29;89864.53;;;23.66;38.64
72585;BME280;60618;40.084;32.908;2023-06-24T07:13:56;89866.88;;;23.77;39.19
72585;BME280;60618;40.084;32.908;2023-06-24T07:16:26;89862.88;;;23.86;36.76
72585;BME280;60618;40.084;32.908;2023-06-24T07:18:53;89863.63;;;23.79;37.99
72585;BME280;60618;40.084;32.908;2023-06-24T07:21:20;89859.41;;;24.09;37.37
72585;BME280;60618;40.084;32.908;2023-06-24T07:23:47;89864.50;;;24.04;36.89
72585;BME280;60618;40.084;32.908;2023-06-24T07:26:14;89861.97;;;23.91;36.13
72585;BME280;60618;40.084;32.908;2023-06-24T07:28:41;89854.91;;;23.81;36.37
72585;BME280;60618;40.084;32.908;2023-06-24T07:31:12;89858.50;;;23.98;37.08
72585;BME280;60618;40.084;32.908;2023-06-24T07:33:38;89857.78;;;24.05;35.40
72585;BME280;60618;40.084;32.908;2023-06-24T07:36:06;89857.75;;;24.13;36.17
72585;BME280;60618;40.084;32.908;2023-06-24T07:38:34;89861.44;;;23.55;36.75
72585;BME280;60618;40.084;32.908;2023-06-24T07:41:02;89865.41;;;23.23;38.37
72585;BME280;60618;40.084;32.908;2023-06-24T07:43:29;89868.50;;;23.42;38.29
72585;BME280;60618;40.084;32.908;2023-06-24T07:45:56;89862.16;;;23.78;38.46
72585;BME280;60618;40.084;32.908;2023-06-24T07:48:23;89868.31;;;24.01;37.13
72585;BME280;60618;40.084;32.908;2023-06-24T07:50:50;89866.47;;;24.12;37.92
72585;BME280;60618;40.084;32.908;2023-06-24T07:53:16;89870.97;;;24.32;38.20
72585;BME280;60618;40.084;32.908;2023-06-24T07:55:43;89864.28;;;24.81;38.10
72585;BME280;60618;40.084;32.908;2023-06-24T07:58:10;89875.16;;;24.33;37.42
72585;BME280;60618;40.084;32.908;2023-06-24T08:00:37;89874.97;;;24.23;37.44
72585;BME280;60618;40.084;32.908;2023-06-24T08:03:05;89870.47;;;24.11;38.14
72585;BME280;60618;40.084;32.908;2023-06-24T08:05:32;89876.63;;;24.19;38.78
72585;BME280;60618;40.084;32.908;2023-06-24T08:08:00;89874.44;;;24.17;38.06
72585;BME280;60618;40.084;32.908;2023-06-24T08:10:27;89866.81;;;24.23;37.26
72585;BME280;60618;40.084;32.908;2023-06-24T08:12:54;89861.63;;;24.58;37.70
72585;BME280;60618;40.084;32.908;2023-06-24T08:15:20;89865.13;;;24.91;37.54
72585;BME280;60618;40.084;32.908;2023-06-24T08:17:51;89864.53;;;25.00;37.39
72585;BME280;60618;40.084;32.908;2023-06-24T08:20:23;89868.94;;;24.88;37.12
72585;BME280;60618;40.084;32.908;2023-06-24T08:22:50;89871.03;;;24.72;38.20
72585;BME280;60618;40.084;32.908;2023-06-24T08:25:17;89860.63;;;24.23;37.10
72585;BME280;60618;40.084;32.908;2023-06-24T08:27:45;89866.06;;;24.38;38.47
72585;BME280;60618;40.084;32.908;2023-06-24T08:30:13;89861.09;;;24.52;38.10
72585;BME280;60618;40.084;32.908;2023-06-24T08:32:40;89865.94;;;24.69;37.74
72585;BME280;60618;40.084;32.908;2023-06-24T08:35:08;89853.56;;;25.15;36.49
72585;BME280;60618;40.084;32.908;2023-06-24T08:37:39;89858.34;;;25.57;34.98
72585;BME280;60618;40.084;32.908;2023-06-24T08:40:06;89853.00;;;25.42;35.86
72585;BME280;60618;40.084;32.908;2023-06-24T08:42:33;89849.25;;;25.62;35.91
72585;BME280;60618;40.084;32.908;2023-06-24T08:45:00;89855.28;;;25.03;36.77
72585;BME280;60618;40.084;32.908;2023-06-24T08:47:28;89849.19;;;24.80;35.97
72585;BME280;60618;40.084;32.908;2023-06-24T08:50:11;89845.69;;;24.87;35.66
72585;BME280;60618;40.084;32.908;2023-06-24T08:52:38;89846.69;;;24.74;35.75
72585;BME280;60618;40.084;32.908;2023-06-24T08:55:10;89854.47;;;24.78;35.44
72585;BME280;60618;40.084;32.908;2023-06-24T08:57:39;89851.09;;;25.35;35.51
72585;BME280;60618;40.084;32.908;2023-06-24T09:00:07;89851.13;;;25.77;34.69
72585;BME280;60618;40.084;32.908;2023-06-24T09:02:34;89841.94;;;25.90;34.02
72585;BME280;60618;40.084;32.908;2023-06-24T09:05:01;89850.38;;;26.19;34.67
72585;BME280;60618;40.084;32.908;2023-06-24T09:07:28;89849.00;;;26.10;35.70
72585;BME280;60618;40.084;32.908;2023-06-24T09:09:56;89850.72;;;25.31;36.94
72585;BME280;60618;40.084;32.908;2023-06-24T09:12:24;89853.06;;;25.09;35.65
72585;BME280;60618;40.084;32.908;2023-06-24T09:14:51;89845.38;;;25.65;35.46
72585;BME280;60618;40.084;32.908;2023-06-24T09:17:19;89848.16;;;25.58;35.29
72585;BME280;60618;40.084;32.908;2023-06-24T09:19:47;89847.22;;;26.05;34.04
72585;BME280;60618;40.084;32.908;2023-06-24T09:22:14;89845.94;;;25.89;33.48
72585;BME280;60618;40.084;32.908;2023-06-24T09:24:41;89839.75;;;25.71;34.13
72585;BME280;60618;40.084;32.908;2023-06-24T09:27:07;89842.28;;;26.28;32.12
72585;BME280;60618;40.084;32.908;2023-06-24T09:29:35;89840.34;;;26.04;32.56
72585;BME280;60618;40.084;32.908;2023-06-24T09:32:06;89845.22;;;25.88;30.45
72585;BME280;60618;40.084;32.908;2023-06-24T09:34:34;89834.00;;;26.01;28.44
72585;BME280;60618;40.084;32.908;2023-06-24T09:37:01;89834.16;;;26.03;28.33
72585;BME280;60618;40.084;32.908;2023-06-24T09:39:35;89834.09;;;26.46;26.87
72585;BME280;60618;40.084;32.908;2023-06-24T09:42:04;89829.84;;;26.97;26.86
72585;BME280;60618;40.084;32.908;2023-06-24T09:44:31;89831.41;;;27.17;26.94
72585;BME280;60618;40.084;32.908;2023-06-24T09:46:58;89831.00;;;26.76;24.08
72585;BME280;60618;40.084;32.908;2023-06-24T09:49:25;89829.56;;;26.75;23.21
72585;BME280;60618;40.084;32.908;2023-06-24T09:51:56;89823.75;;;26.88;25.64
72585;BME280;60618;40.084;32.908;2023-06-24T09:54:28;89817.56;;;26.88;25.31
72585;BME280;60618;40.084;32.908;2023-06-24T09:57:02;89814.56;;;25.97;22.69
72585;BME280;60618;40.084;32.908;2023-06-24T09:59:30;89809.63;;;25.79;26.26
72585;BME280;60618;40.084;32.908;2023-06-24T10:01:57;89810.53;;;25.56;25.89
72585;BME280;60618;40.084;32.908;2023-06-24T10:04:27;89801.16;;;25.92;25.79
72585;BME280;60618;40.084;32.908;2023-06-24T10:06:54;89816.28;;;26.45;23.81
72585;BME280;60618;40.084;32.908;2023-06-24T10:09:22;89796.97;;;25.91;22.94
72585;BME280;60618;40.084;32.908;2023-06-24T10:11:49;89809.81;;;25.81;23.90
72585;BME280;60618;40.084;32.908;2023-06-24T10:14:16;89797.38;;;25.87;22.13
72585;BME280;60618;40.084;32.908;2023-06-24T10:16:44;89805.72;;;26.24;24.63
72585;BME280;60618;40.084;32.908;2023-06-24T10:19:18;89805.31;;;26.27;24.23
72585;BME280;60618;40.084;32.908;2023-06-24T10:21:58;89803.75;;;26.96;23.49
72585;BME280;60618;40.084;32.908;2023-06-24T10:24:30;89799.19;;;27.25;23.54
72585;BME280;60618;40.084;32.908;2023-06-24T10:27:02;89795.00;;;27.61;22.80
72585;BME280;60618;40.084;32.908;2023-06-24T10:29:36;89801.13;;;27.42;24.96
72585;BME280;60618;40.084;32.908;2023-06-24T10:32:07;89796.47;;;26.71;22.33
72585;BME280;60618;40.084;32.908;2023-06-24T10:37:03;89795.31;;;26.74;21.88
72585;BME280;60618;40.084;32.908;2023-06-24T10:42:44;89792.31;;;27.34;19.90
72585;BME280;60618;40.084;32.908;2023-06-24T10:45:18;89796.44;;;27.62;21.90
72585;BME280;60618;40.084;32.908;2023-06-24T10:47:50;89788.94;;;27.53;23.14
72585;BME280;60618;40.084;32.908;2023-06-24T10:50:20;89791.91;;;27.47;21.22
72585;BME280;60618;40.084;32.908;2023-06-24T10:52:49;89791.91;;;27.47;24.25
72585;BME280;60618;40.084;32.908;2023-06-24T10:55:17;89798.50;;;27.71;22.04
72585;BME280;60618;40.084;32.908;2023-06-24T10:57:45;89787.72;;;27.36;20.53
72585;BME280;60618;40.084;32.908;2023-06-24T11:00:13;89787.53;;;26.98;20.95
72585;BME280;60618;40.084;32.908;2023-06-24T11:02:40;89786.09;;;27.24;20.90
72585;BME280;60618;40.084;32.908;2023-06-24T11:05:08;89784.09;;;27.70;19.51
72585;BME280;60618;40.084;32.908;2023-06-24T11:07:38;89783.09;;;27.76;18.89
72585;BME280;60618;40.084;32.908;2023-06-24T11:12:39;89785.44;;;27.98;17.47
72585;BME280;60618;40.084;32.908;2023-06-24T11:15:08;89788.09;;;27.60;18.48
72585;BME280;60618;40.084;32.908;2023-06-24T11:17:36;89786.28;;;27.35;16.99
72585;BME280;60618;40.084;32.908;2023-06-24T11:20:16;89787.94;;;26.94;17.47
72585;BME280;60618;40.084;32.908;2023-06-24T11:22:43;89783.75;;;27.57;18.61
72585;BME280;60618;40.084;32.908;2023-06-24T11:25:20;89781.41;;;28.19;17.83
72585;BME280;60618;40.084;32.908;2023-06-24T11:27:51;89787.31;;;27.86;17.65
72585;BME280;60618;40.084;32.908;2023-06-24T11:30:18;89786.13;;;27.70;17.41
72585;BME280;60618;40.084;32.908;2023-06-24T11:32:45;89779.94;;;27.89;17.44
72585;BME280;60618;40.084;32.908;2023-06-24T11:35:13;89776.84;;;27.65;17.41
72585;BME280;60618;40.084;32.908;2023-06-24T11:37:42;89770.19;;;28.15;17.47
72585;BME280;60618;40.084;32.908;2023-06-24T11:40:10;89773.63;;;28.54;17.81
72585;BME280;60618;40.084;32.908;2023-06-24T11:42:39;89762.09;;;28.46;17.52
72585;BME280;60618;40.084;32.908;2023-06-24T11:45:11;89766.56;;;28.03;17.49
72585;BME280;60618;40.084;32.908;2023-06-24T11:47:42;89770.16;;;27.39;18.96
72585;BME280;60618;40.084;32.908;2023-06-24T11:50:09;89760.66;;;27.96;17.53
72585;BME280;60618;40.084;32.908;2023-06-24T11:55:03;89764.06;;;28.84;18.55
72585;BME280;60618;40.084;32.908;2023-06-24T11:57:56;89762.91;;;28.87;17.25
72585;BME280;60618;40.084;32.908;2023-06-24T12:00:26;89759.00;;;29.00;20.54
72585;BME280;60618;40.084;32.908;2023-06-24T12:03:01;89749.25;;;29.59;19.27
72585;BME280;60618;40.084;32.908;2023-06-24T12:05:31;89758.84;;;29.38;19.88
72585;BME280;60618;40.084;32.908;2023-06-24T12:10:27;89755.66;;;29.42;18.60
72585;BME280;60618;40.084;32.908;2023-06-24T12:12:56;89752.59;;;29.79;19.86
72585;BME280;60618;40.084;32.908;2023-06-24T12:15:23;89750.63;;;28.88;19.95
72585;BME280;60618;40.084;32.908;2023-06-24T12:17:50;89747.97;;;28.40;19.60
72585;BME280;60618;40.084;32.908;2023-06-24T12:20:17;89741.06;;;28.29;20.84
72585;BME280;60618;40.084;32.908;2023-06-24T12:22:48;89730.22;;;28.12;20.78
72585;BME280;60618;40.084;32.908;2023-06-24T12:25:18;89737.88;;;28.13;21.05
72585;BME280;60618;40.084;32.908;2023-06-24T12:27:45;89732.53;;;28.25;20.73
72585;BME280;60618;40.084;32.908;2023-06-24T12:30:13;89737.13;;;28.71;22.38
72585;BME280;60618;40.084;32.908;2023-06-24T12:32:40;89732.41;;;29.02;20.38
72585;BME280;60618;40.084;32.908;2023-06-24T12:35:10;89722.25;;;29.46;20.26
72585;BME280;60618;40.084;32.908;2023-06-24T12:37:38;89724.72;;;29.10;20.45
72585;BME280;60618;40.084;32.908;2023-06-24T12:40:05;89724.94;;;28.93;19.97
72585;BME280;60618;40.084;32.908;2023-06-24T12:42:33;89722.66;;;28.80;22.43
72585;BME280;60618;40.084;32.908;2023-06-24T12:45:00;89710.97;;;29.30;20.17
72585;BME280;60618;40.084;32.908;2023-06-24T12:47:27;89716.72;;;30.08;20.22
72585;BME280;60618;40.084;32.908;2023-06-24T12:49:54;89713.13;;;30.71;20.99
72585;BME280;60618;40.084;32.908;2023-06-24T12:52:21;89719.19;;;31.26;19.79
72585;BME280;60618;40.084;32.908;2023-06-24T12:54:48;89726.09;;;31.04;20.44
72585;BME280;60618;40.084;32.908;2023-06-24T12:57:15;89725.00;;;30.19;20.61
72585;BME280;60618;40.084;32.908;2023-06-24T12:59:42;89723.22;;;29.60;20.23
72585;BME280;60618;40.084;32.908;2023-06-24T13:02:09;89719.56;;;29.05;22.06
72585;BME280;60618;40.084;32.908;2023-06-24T13:04:37;89728.00;;;28.78;23.09
72585;BME280;60618;40.084;32.908;2023-06-24T13:07:05;89720.16;;;28.34;22.03
72585;BME280;60618;40.084;32.908;2023-06-24T13:09:31;89715.94;;;28.52;21.46
72585;BME280;60618;40.084;32.908;2023-06-24T13:11:58;89707.16;;;29.04;21.12
72585;BME280;60618;40.084;32.908;2023-06-24T13:14:27;89713.91;;;29.13;20.83
72585;BME280;60618;40.084;32.908;2023-06-24T13:16:55;89703.63;;;29.23;20.54
72585;BME280;60618;40.084;32.908;2023-06-24T13:19:22;89702.34;;;29.45;20.58
72585;BME280;60618;40.084;32.908;2023-06-24T13:21:49;89712.22;;;29.29;19.38
72585;BME280;60618;40.084;32.908;2023-06-24T13:24:16;89697.09;;;28.87;19.13
72585;BME280;60618;40.084;32.908;2023-06-24T13:26:43;89696.69;;;29.22;19.79
72585;BME280;60618;40.084;32.908;2023-06-24T13:29:10;89695.47;;;29.03;18.26
72585;BME280;60618;40.084;32.908;2023-06-24T13:31:37;89693.53;;;29.16;20.12
72585;BME280;60618;40.084;32.908;2023-06-24T13:34:04;89696.09;;;28.92;20.08
72585;BME280;60618;40.084;32.908;2023-06-24T13:36:33;89690.50;;;29.11;19.67
72585;BME280;60618;40.084;32.908;2023-06-24T13:39:02;89692.31;;;29.59;18.81
72585;BME280;60618;40.084;32.908;2023-06-24T13:41:29;89680.75;;;29.61;18.74
72585;BME280;60618;40.084;32.908;2023-06-24T13:43:57;89684.16;;;29.50;17.87
72585;BME280;60618;40.084;32.908;2023-06-24T13:46:27;89676.13;;;29.32;17.94
72585;BME280;60618;40.084;32.908;2023-06-24T13:48:54;89675.69;;;29.05;17.99
72585;BME280;60618;40.084;32.908;2023-06-24T13:51:22;89668.81;;;28.94;19.39
72585;BME280;60618;40.084;32.908;2023-06-24T13:53:50;89666.34;;;28.98;20.17
72585;BME280;60618;40.084;32.908;2023-06-24T13:56:18;89672.16;;;28.73;19.36
72585;BME280;60618;40.084;32.908;2023-06-24T13:58:46;89671.75;;;29.39;19.19
72585;BME280;60618;40.084;32.908;2023-06-24T14:01:13;89667.72;;;29.61;18.45
72585;BME280;60618;40.084;32.908;2023-06-24T14:03:41;89669.44;;;29.66;18.02
72585;BME280;60618;40.084;32.908;2023-06-24T14:06:08;89666.97;;;29.49;19.91
72585;BME280;60618;40.084;32.908;2023-06-24T14:08:35;89669.84;;;28.89;17.93
72585;BME280;60618;40.084;32.908;2023-06-24T14:11:03;89669.19;;;29.00;18.57
72585;BME280;60618;40.084;32.908;2023-06-24T14:13:30;89651.47;;;29.54;18.23
72585;BME280;60618;40.084;32.908;2023-06-24T14:15:57;89664.97;;;30.04;17.88
72585;BME280;60618;40.084;32.908;2023-06-24T14:18:24;89654.22;;;29.23;17.51
72585;BME280;60618;40.084;32.908;2023-06-24T14:20:51;89656.34;;;28.62;18.52
72585;BME280;60618;40.084;32.908;2023-06-24T14:23:18;89656.28;;;28.41;19.08
72585;BME280;60618;40.084;32.908;2023-06-24T14:25:45;89657.34;;;28.57;18.36
72585;BME280;60618;40.084;32.908;2023-06-24T14:28:12;89650.19;;;28.83;17.51
72585;BME280;60618;40.084;32.908;2023-06-24T14:30:39;89645.41;;;28.93;16.19
72585;BME280;60618;40.084;32.908;2023-06-24T14:33:06;89650.94;;;29.15;16.08
72585;BME280;60618;40.084;32.908;2023-06-24T14:35:33;89656.50;;;29.26;16.41
72585;BME280;60618;40.084;32.908;2023-06-24T14:38:00;89648.66;;;29.63;17.89
72585;BME280;60618;40.084;32.908;2023-06-24T14:40:27;89655.38;;;29.72;16.88
72585;BME280;60618;40.084;32.908;2023-06-24T14:42:54;89648.16;;;29.24;16.80
72585;BME280;60618;40.084;32.908;2023-06-24T14:45:21;89647.66;;;28.66;18.62
72585;BME280;60618;40.084;32.908;2023-06-24T14:47:51;89640.16;;;28.76;17.19
72585;BME280;60618;40.084;32.908;2023-06-24T14:50:18;89644.91;;;28.66;17.27
72585;BME280;60618;40.084;32.908;2023-06-24T14:52:45;89637.56;;;28.08;19.02
72585;BME280;60618;40.084;32.908;2023-06-24T14:55:12;89636.72;;;27.67;18.92
72585;BME280;60618;40.084;32.908;2023-06-24T14:57:39;89644.94;;;27.77;18.64
72585;BME280;60618;40.084;32.908;2023-06-24T15:00:10;89637.28;;;27.94;19.14
72585;BME280;60618;40.084;32.908;2023-06-24T15:02:38;89640.56;;;28.12;19.80
72585;BME280;60618;40.084;32.908;2023-06-24T15:05:05;89639.84;;;28.12;19.03
72585;BME280;60618;40.084;32.908;2023-06-24T15:07:32;89643.72;;;28.28;19.44
72585;BME280;60618;40.084;32.908;2023-06-24T15:09:59;89642.88;;;28.35;19.59
72585;BME280;60618;40.084;32.908;2023-06-24T15:12:26;89646.88;;;28.44;18.29
72585;BME280;60618;40.084;32.908;2023-06-24T15:14:53;89645.84;;;28.59;18.17
72585;BME280;60618;40.084;32.908;2023-06-24T15:17:20;89645.88;;;28.80;18.78
72585;BME280;60618;40.084;32.908;2023-06-24T15:19:50;89640.25;;;28.27;17.63
72585;BME280;60618;40.084;32.908;2023-06-24T15:22:17;89645.88;;;28.20;18.18
72585;BME280;60618;40.084;32.908;2023-06-24T15:24:44;89646.91;;;28.34;18.64
72585;BME280;60618;40.084;32.908;2023-06-24T15:27:12;89639.47;;;28.56;19.73
72585;BME280;60618;40.084;32.908;2023-06-24T15:29:39;89639.13;;;28.40;20.21
72585;BME280;60618;40.084;32.908;2023-06-24T15:32:06;89645.47;;;28.23;19.97
72585;BME280;60618;40.084;32.908;2023-06-24T15:34:33;89652.13;;;27.82;19.27